createdAt,value
2022-12-03T00:00:36.277Z,98115.25
2022-12-03T00:03:03.819Z,98109.91
2022-12-03T00:05:30.937Z,98101.66
2022-12-03T00:07:58.193Z,98098.25
2022-12-03T00:10:26.450Z,98102.34
2022-12-03T00:12:54.023Z,98089.53
2022-12-03T00:15:21.175Z,98087.81
2022-12-03T00:17:48.176Z,98089.97
2022-12-03T00:20:22.250Z,98088.25
2022-12-03T00:22:49.828Z,98083.88
2022-12-03T00:25:17.047Z,98082.19
2022-12-03T00:27:44.452Z,98076.41
2022-12-03T00:30:12.632Z,98076.19
2022-12-03T00:32:39.815Z,98080.31
2022-12-03T00:35:07.614Z,98073.28
2022-12-03T00:37:35.497Z,98080.78
2022-12-03T00:40:04.222Z,98078.63
2022-12-03T00:42:31.610Z,98068.66
2022-12-03T00:44:58.589Z,98069.41
2022-12-03T00:47:25.652Z,98083.22
2022-12-03T00:49:52.742Z,98079.81
2022-12-03T00:52:20.071Z,98081.78
2022-12-03T00:54:47.144Z,98074.75
2022-12-03T00:57:14.196Z,98070.59
2022-12-03T00:59:41.443Z,98070.13
2022-12-03T01:02:09.218Z,98063.34
2022-12-03T01:04:36.474Z,98060.19
2022-12-03T01:07:03.803Z,98056.56
2022-12-03T01:09:30.785Z,98052.19
2022-12-03T01:11:57.989Z,98052.19
2022-12-03T01:14:25.133Z,98054.63
2022-12-03T01:16:52.144Z,98038.38
2022-12-03T01:19:19.798Z,98033.25
2022-12-03T01:21:49.727Z,98032.06
2022-12-03T01:24:17.937Z,98024.31
2022-12-03T01:26:45.318Z,98022.38
2022-12-03T01:29:12.311Z,98017.75
2022-12-03T01:31:58.039Z,98002.50
2022-12-03T01:34:25.010Z,98008.06
2022-12-03T01:36:52.774Z,98010.22
2022-12-03T01:39:20.347Z,97997.91
2022-12-03T01:41:49.563Z,97991.84
2022-12-03T01:44:28.226Z,97997.91
2022-12-03T01:46:57.544Z,97994.75
2022-12-03T01:49:43.719Z,97989.41
2022-12-03T01:52:17.140Z,97975.09
2022-12-03T01:55:15.205Z,97973.91
2022-12-03T01:57:46.447Z,97970.75
2022-12-03T02:00:20.219Z,97973.66
2022-12-03T02:02:53.020Z,97971.22
2022-12-03T02:05:24.002Z,97972.44
2022-12-03T02:07:51.267Z,97975.34
2022-12-03T02:10:21.644Z,97969.78
2022-12-03T02:13:09.345Z,97964.94
2022-12-03T02:15:38.764Z,97965.91
2022-12-03T02:18:05.883Z,97956.00
2022-12-03T02:20:41.194Z,97958.16
2022-12-03T02:23:16.743Z,97954.03
2022-12-03T02:25:43.943Z,97953.78
2022-12-03T02:28:11.297Z,97949.69
2022-12-03T02:30:38.392Z,97945.56
2022-12-03T02:33:05.638Z,97933.88
2022-12-03T02:35:35.077Z,97943.13
2022-12-03T02:38:37.449Z,97943.59
2022-12-03T02:41:08.433Z,97940.94
2022-12-03T02:43:35.660Z,97946.28
2022-12-03T02:46:05.278Z,97943.84
2022-12-03T02:48:35.875Z,97938.97
2022-12-03T02:51:11.255Z,97937.50
2022-12-03T02:53:45.059Z,97938.00
2022-12-03T02:56:16.677Z,97939.91
2022-12-03T02:58:45.544Z,97937.72
2022-12-03T03:01:13.090Z,97946.47
2022-12-03T03:03:40.369Z,97952.78
2022-12-03T03:06:08.863Z,97954.47
2022-12-03T03:08:37.521Z,97962.78
2022-12-03T03:11:05.317Z,97958.19
2022-12-03T03:13:35.669Z,97957.66
2022-12-03T03:16:04.150Z,97957.41
2022-12-03T03:18:32.613Z,97951.56
2022-12-03T03:20:59.888Z,97951.09
2022-12-03T03:23:26.922Z,97952.31
2022-12-03T03:26:05.836Z,97942.84
2022-12-03T03:28:36.075Z,97946.72
2022-12-03T03:31:05.370Z,97942.38
2022-12-03T03:33:32.966Z,97946.25
2022-12-03T03:36:00.825Z,97942.13
2022-12-03T03:38:30.025Z,97948.94
2022-12-03T03:40:59.552Z,97949.16
2022-12-03T03:43:26.746Z,97945.03
2022-12-03T03:45:54.406Z,97933.94
2022-12-03T03:48:22.759Z,97941.66
2022-12-03T03:50:51.288Z,97946.75
2022-12-03T03:53:19.582Z,97944.81
2022-12-03T03:55:47.165Z,97943.38
2022-12-03T03:58:14.402Z,97936.59
2022-12-03T04:00:44.331Z,97939.25
2022-12-03T04:03:11.932Z,97930.53
2022-12-03T04:05:39.457Z,97937.81
2022-12-03T04:08:21.764Z,97927.88
2022-12-03T04:11:07.276Z,97922.31
2022-12-03T04:13:34.356Z,97917.69
2022-12-03T04:16:01.601Z,97917.91
2022-12-03T04:18:43.529Z,97917.44
2022-12-03T04:21:37.862Z,97916.94
2022-12-03T04:24:06.198Z,97915.00
2022-12-03T04:26:51.932Z,97915.97
2022-12-03T04:29:20.141Z,97916.94
2022-12-03T04:32:05.705Z,97914.00
2022-12-03T04:34:52.209Z,97906.28
2022-12-03T04:37:19.694Z,97914.50
2022-12-03T04:39:46.781Z,97909.41
2022-12-03T04:42:13.865Z,97902.88
2022-12-03T04:44:40.922Z,97901.66
2022-12-03T04:47:14.050Z,97907.44
2022-12-03T04:49:43.532Z,97900.22
2022-12-03T04:52:12.181Z,97899.22
2022-12-03T04:54:39.526Z,97901.13
2022-12-03T04:57:07.119Z,97912.03
2022-12-03T04:59:35.123Z,97895.13
2022-12-03T05:02:02.364Z,97893.44
2022-12-03T05:04:29.711Z,97892.72
2022-12-03T05:06:56.724Z,97888.09
2022-12-03T05:09:24.038Z,97888.59
2022-12-03T05:11:51.111Z,97889.34
2022-12-03T05:14:18.079Z,97889.34
2022-12-03T05:16:45.124Z,97896.59
2022-12-03T05:19:12.180Z,97894.66
2022-12-03T05:21:39.146Z,97894.91
2022-12-03T05:24:06.638Z,97890.78
2022-12-03T05:26:33.709Z,97899.25
2022-12-03T05:29:00.723Z,97899.50
2022-12-03T05:31:27.817Z,97900.97
2022-12-03T05:33:55.462Z,97897.59
2022-12-03T05:36:22.595Z,97902.69
2022-12-03T05:38:49.579Z,97893.97
2022-12-03T05:41:34.899Z,97903.66
2022-12-03T05:44:01.921Z,97905.81
2022-12-03T05:46:29.176Z,97903.19
2022-12-03T05:48:56.255Z,97899.53
2022-12-03T05:51:23.315Z,97895.41
2022-12-03T05:53:50.323Z,97903.66
2022-12-03T05:56:17.333Z,97899.06
2022-12-03T05:58:44.319Z,97909.72
2022-12-03T06:01:11.244Z,97904.16
2022-12-03T06:03:38.414Z,97897.84
2022-12-03T06:06:05.706Z,97896.16
2022-12-03T06:08:32.665Z,97898.09
2022-12-03T06:10:59.651Z,97901.97
2022-12-03T06:13:26.656Z,97902.44
2022-12-03T06:15:53.702Z,97911.38
2022-12-03T06:18:20.777Z,97917.22
2022-12-03T06:20:47.808Z,97916.94
2022-12-03T06:23:14.847Z,97915.28
2022-12-03T06:25:41.830Z,97921.09
2022-12-03T06:28:09.121Z,97923.75
2022-12-03T06:30:36.226Z,97920.84
2022-12-03T06:33:03.374Z,97914.56
2022-12-03T06:35:30.498Z,97908.50
2022-12-03T06:37:57.557Z,97912.38
2022-12-03T06:40:25.339Z,97919.91
2022-12-03T06:42:53.108Z,97915.03
2022-12-03T06:45:20.111Z,97920.84
2022-12-03T06:47:47.287Z,97923.78
2022-12-03T06:50:15.060Z,97930.56
2022-12-03T06:52:42.066Z,97928.59
2022-12-03T06:55:09.734Z,97926.38
2022-12-03T06:57:36.755Z,97937.31
2022-12-03T07:00:06.361Z,97944.03
2022-12-03T07:02:33.578Z,97948.38
2022-12-03T07:05:00.706Z,97953.94
2022-12-03T07:07:27.673Z,97942.31
2022-12-03T07:09:54.658Z,97952.19
2022-12-03T07:12:21.740Z,97951.22
2022-12-03T07:14:48.769Z,97950.94
2022-12-03T07:17:15.799Z,97951.44
2022-12-03T07:19:42.860Z,97952.38
2022-12-03T07:22:09.904Z,97952.38
2022-12-03T07:24:36.851Z,97944.66
2022-12-03T07:27:03.908Z,97948.25
2022-12-03T07:29:30.943Z,97953.34
2022-12-03T07:31:57.960Z,97956.75
2022-12-03T07:34:24.937Z,97957.00
2022-12-03T07:36:52.048Z,97948.72
2022-12-03T07:39:19.019Z,97955.25
2022-12-03T07:41:46.017Z,97957.63
2022-12-03T07:44:14.755Z,97953.72
2022-12-03T07:46:42.436Z,97951.25
2022-12-03T07:49:09.634Z,97959.22
2022-12-03T07:51:36.738Z,97966.00
2022-12-03T07:54:04.104Z,97966.50
2022-12-03T07:56:31.139Z,97968.94
2022-12-03T07:58:58.114Z,97974.28
2022-12-03T08:01:25.193Z,97981.59
2022-12-03T08:03:52.263Z,97986.22
2022-12-03T08:06:19.327Z,97982.13
2022-12-03T08:08:46.300Z,97988.25
2022-12-03T08:11:17.119Z,97988.97
2022-12-03T08:13:44.165Z,97988.03
2022-12-03T08:16:22.639Z,97988.94
2022-12-03T08:18:50.815Z,97991.09
2022-12-03T08:21:19.917Z,97991.34
2022-12-03T08:23:47.043Z,97995.94
2022-12-03T08:26:22.169Z,97994.97
2022-12-03T08:28:49.331Z,98003.69
2022-12-03T08:31:20.952Z,98002.97
2022-12-03T08:33:50.559Z,97998.38
2022-12-03T08:36:26.197Z,98006.28
2022-12-03T08:38:56.701Z,98003.34
2022-12-03T08:41:44.850Z,98012.47
2022-12-03T08:44:28.459Z,98018.25
2022-12-03T08:47:02.647Z,98013.41
2022-12-03T08:49:30.091Z,98018.25
2022-12-03T08:52:00.814Z,98023.09
2022-12-03T08:54:28.137Z,98010.75
2022-12-03T08:56:55.365Z,98016.34
2022-12-03T08:59:29.700Z,98022.88
2022-12-03T09:01:57.678Z,98043.13
2022-12-03T09:04:32.072Z,98026.94
2022-12-03T09:06:59.365Z,98037.59
2022-12-03T09:09:26.664Z,98030.34
2022-12-03T09:11:54.358Z,98035.00
2022-12-03T09:14:23.019Z,98028.34
2022-12-03T09:16:52.282Z,98025.25
2022-12-03T09:19:19.428Z,98032.53
2022-12-03T09:21:46.396Z,98028.47
2022-12-03T09:24:13.403Z,98033.84
2022-12-03T09:26:40.539Z,98036.75
2022-12-03T09:29:11.824Z,98042.16
2022-12-03T09:31:39.614Z,98047.75
2022-12-03T09:34:07.262Z,98048.50
2022-12-03T09:36:34.548Z,98041.50
2022-12-03T09:39:01.689Z,98038.38
2022-12-03T09:41:29.152Z,98042.03
2022-12-03T09:44:05.615Z,98042.00
2022-12-03T09:46:35.966Z,98043.94
2022-12-03T09:49:06.630Z,98050.22
2022-12-03T09:51:36.919Z,98055.56
2022-12-03T09:54:06.350Z,98062.81
2022-12-03T09:56:36.796Z,98061.41
2022-12-03T09:59:07.703Z,98063.56
2022-12-03T10:01:34.949Z,98058.97
2022-12-03T10:04:02.378Z,98061.59
2022-12-03T10:06:29.669Z,98060.66
2022-12-03T10:08:57.004Z,98066.50
2022-12-03T10:11:25.838Z,98069.63
2022-12-03T10:13:55.526Z,98076.19
2022-12-03T10:16:23.195Z,98076.91
2022-12-03T10:18:56.300Z,98074.97
2022-12-03T10:21:26.109Z,98067.91
2022-12-03T10:24:17.773Z,98068.19
2022-12-03T10:26:46.890Z,98071.06
2022-12-03T10:29:17.164Z,98077.41
2022-12-03T10:31:44.222Z,98081.47
2022-12-03T10:34:12.191Z,98084.88
2022-12-03T10:36:39.209Z,98077.88
2022-12-03T10:39:13.910Z,98081.72
2022-12-03T10:41:43.139Z,98082.75
2022-12-03T10:44:15.989Z,98081.53
2022-12-03T10:46:44.464Z,98077.66
2022-12-03T10:49:19.776Z,98074.47
2022-12-03T10:51:48.849Z,98071.56
2022-12-03T10:54:22.654Z,98067.19
2022-12-03T10:56:50.846Z,98070.13
2022-12-03T10:59:22.212Z,98064.78
2022-12-03T11:01:50.668Z,98065.28
2022-12-03T11:04:31.050Z,98057.28
2022-12-03T11:06:58.854Z,98060.88
2022-12-03T11:09:29.835Z,98062.09
2022-12-03T11:11:56.985Z,98060.38
2022-12-03T11:14:52.400Z,98056.50
2022-12-03T11:17:51.268Z,98064.00
2022-12-03T11:20:23.064Z,98063.50
2022-12-03T11:22:59.701Z,98061.09
2022-12-03T11:25:29.572Z,98057.72
2022-12-03T11:28:45.947Z,98051.13
2022-12-03T11:31:36.608Z,98049.41
2022-12-03T11:34:18.602Z,98049.16
2022-12-03T11:37:13.194Z,98059.53
2022-12-03T11:39:53.288Z,98045.94
2022-12-03T11:42:26.357Z,98044.94
2022-12-03T11:45:11.292Z,98041.75
2022-12-03T11:47:43.571Z,98044.13
2022-12-03T11:50:39.446Z,98045.06
2022-12-03T11:53:13.867Z,98042.84
2022-12-03T11:55:52.484Z,98038.66
2022-12-03T11:58:40.047Z,98029.59
2022-12-03T12:01:08.689Z,98026.91
2022-12-03T12:03:42.658Z,98023.00
2022-12-03T12:06:14.255Z,98019.63
2022-12-03T12:08:51.019Z,98014.84
2022-12-03T12:11:32.823Z,98008.88
2022-12-03T12:14:01.808Z,98004.81
2022-12-03T12:16:55.335Z,98001.09
2022-12-03T12:19:31.680Z,97989.53
2022-12-03T12:22:28.823Z,97990.09
2022-12-03T12:25:04.772Z,97985.00
2022-12-03T12:27:45.343Z,97978.97
2022-12-03T12:30:19.102Z,97974.59
2022-12-03T12:32:47.539Z,97962.19
2022-12-03T12:35:28.820Z,97969.66
2022-12-03T12:38:02.833Z,97964.75
2022-12-03T12:40:32.645Z,97956.75
2022-12-03T12:43:31.067Z,97954.75
2022-12-03T12:46:24.886Z,97947.59
2022-12-03T12:48:56.504Z,97944.41
2022-12-03T12:51:26.491Z,97935.34
2022-12-03T12:53:54.085Z,97940.25
2022-12-03T12:56:28.491Z,97935.88
2022-12-03T12:58:59.453Z,97923.00
2022-12-03T13:01:31.558Z,97911.97
2022-12-03T13:03:59.780Z,97910.03
2022-12-03T13:06:29.954Z,97909.28
2022-12-03T13:08:57.727Z,97907.00
2022-12-03T13:11:46.041Z,97906.59
2022-12-03T13:14:16.411Z,97896.22
2022-12-03T13:16:43.841Z,97892.06
2022-12-03T13:19:30.659Z,97892.31
2022-12-03T13:22:01.463Z,97886.44
2022-12-03T13:24:32.890Z,97881.28
2022-12-03T13:27:22.176Z,97880.69
2022-12-03T13:30:14.102Z,97875.28
2022-12-03T13:32:43.041Z,97867.97
2022-12-03T13:35:30.834Z,97867.72
2022-12-03T13:38:00.739Z,97866.97
2022-12-03T13:40:35.187Z,97863.75
2022-12-03T13:43:14.822Z,97857.84
2022-12-03T13:45:44.112Z,97861.88
2022-12-03T13:48:20.517Z,97857.72
2022-12-03T13:50:47.703Z,97857.28
2022-12-03T13:53:35.892Z,97845.59
2022-12-03T13:56:28.243Z,97847.47
2022-12-03T13:58:57.603Z,97848.66
2022-12-03T14:01:24.710Z,97842.91
2022-12-03T14:03:51.796Z,97845.59
2022-12-03T14:06:19.021Z,97835.41
2022-12-03T14:08:46.050Z,97839.06
2022-12-03T14:11:31.589Z,97837.34
2022-12-03T14:13:58.522Z,97825.59
2022-12-03T14:16:25.525Z,97821.69
2022-12-03T14:18:52.658Z,97826.31
2022-12-03T14:21:19.726Z,97818.28
2022-12-03T14:23:46.663Z,97811.50
2022-12-03T14:26:13.699Z,97815.75
2022-12-03T14:28:40.794Z,97810.16
2022-12-03T14:31:07.804Z,97803.34
2022-12-03T14:33:34.868Z,97801.66
2022-12-03T14:36:01.943Z,97800.84
2022-12-03T14:38:28.936Z,97797.19
2022-12-03T14:40:56.041Z,97798.91
2022-12-03T14:43:23.111Z,97793.56
2022-12-03T14:45:50.168Z,97792.78
2022-12-03T14:48:17.219Z,97788.09
2022-12-03T14:50:44.195Z,97785.72
2022-12-03T14:53:11.172Z,97786.34
2022-12-03T14:55:38.188Z,97782.78
2022-12-03T14:58:05.235Z,97777.66
2022-12-03T15:00:32.220Z,97781.53
2022-12-03T15:02:59.290Z,97783.94
2022-12-03T15:05:28.826Z,97775.09
2022-12-03T15:07:56.503Z,97785.22
2022-12-03T15:10:23.786Z,97776.41
2022-12-03T15:12:50.849Z,97782.19
2022-12-03T15:15:17.838Z,97783.16
2022-12-03T15:17:45.994Z,97779.28
2022-12-03T15:20:13.486Z,97783.59
2022-12-03T15:22:40.429Z,97778.50
2022-12-03T15:25:08.040Z,97778.25
2022-12-03T15:27:35.129Z,97777.81
2022-12-03T15:30:02.571Z,97779.56
2022-12-03T15:32:29.559Z,97777.38
2022-12-03T15:34:56.579Z,97776.09
2022-12-03T15:37:27.850Z,97772.75
2022-12-03T15:39:55.187Z,97767.69
2022-12-03T15:42:22.407Z,97767.97
2022-12-03T15:44:49.503Z,97770.41
2022-12-03T15:47:16.494Z,97769.75
2022-12-03T15:49:43.663Z,97775.59
2022-12-03T15:52:10.748Z,97768.97
2022-12-03T15:54:37.810Z,97766.97
2022-12-03T15:57:04.803Z,97767.97
2022-12-03T15:59:31.899Z,97771.66
2022-12-03T16:01:59.343Z,97771.06
2022-12-03T16:04:26.475Z,97764.72
2022-12-03T16:06:53.523Z,97771.28
2022-12-03T16:09:26.692Z,97763.41
2022-12-03T16:11:54.558Z,97766.50
2022-12-03T16:14:21.586Z,97762.06
2022-12-03T16:16:48.555Z,97765.50
2022-12-03T16:19:15.476Z,97767.97
2022-12-03T16:21:42.531Z,97770.22
2022-12-03T16:24:09.562Z,97761.47
2022-12-03T16:26:36.598Z,97761.84
2022-12-03T16:29:03.774Z,97765.41
2022-12-03T16:31:31.011Z,97760.47
2022-12-03T16:33:58.150Z,97767.69
2022-12-03T16:36:25.247Z,97764.03
2022-12-03T16:38:52.304Z,97765.00
2022-12-03T16:41:19.384Z,97765.72
2022-12-03T16:43:48.685Z,97756.88
2022-12-03T16:46:15.803Z,97761.94
2022-12-03T16:48:43.481Z,97765.16
2022-12-03T16:51:11.098Z,97770.19
2022-12-03T16:53:38.198Z,97767.25
2022-12-03T16:56:05.400Z,97770.59
2022-12-03T16:58:32.416Z,97766.84
2022-12-03T17:00:59.812Z,97766.84
2022-12-03T17:03:33.456Z,97762.72
2022-12-03T17:06:01.117Z,97763.97
2022-12-03T17:08:28.125Z,97768.41
2022-12-03T17:10:55.333Z,97757.56
2022-12-03T17:13:25.824Z,97764.63
2022-12-03T17:15:53.009Z,97762.78
2022-12-03T17:18:20.145Z,97762.28
2022-12-03T17:20:47.116Z,97770.06
2022-12-03T17:23:14.230Z,97761.06
2022-12-03T17:25:41.199Z,97762.53
2022-12-03T17:28:08.142Z,97761.06
2022-12-03T17:30:35.362Z,97769.06
2022-12-03T17:33:02.355Z,97776.22
2022-12-03T17:35:29.530Z,97772.91
2022-12-03T17:37:56.776Z,97775.66
2022-12-03T17:40:23.799Z,97770.06
2022-12-03T17:42:50.783Z,97772.75
2022-12-03T17:45:17.952Z,97780.31
2022-12-03T17:47:44.924Z,97780.66
2022-12-03T17:50:12.347Z,97774.06
2022-12-03T17:52:39.405Z,97776.72
2022-12-03T17:55:13.925Z,97777.44
2022-12-03T17:57:43.240Z,97766.78
2022-12-03T18:00:10.781Z,97771.91
2022-12-03T18:02:37.797Z,97773.59
2022-12-03T18:05:05.222Z,97764.22
2022-12-03T18:07:32.459Z,97765.69
2022-12-03T18:09:59.622Z,97773.94
2022-12-03T18:12:26.639Z,97765.94
2022-12-03T18:14:53.655Z,97771.03
2022-12-03T18:17:20.757Z,97768.84
2022-12-03T18:19:47.904Z,97773.50
2022-12-03T18:22:15.236Z,97773.03
2022-12-03T18:24:44.945Z,97762.09
2022-12-03T18:27:13.118Z,97763.34
2022-12-03T18:29:40.177Z,97766.72
2022-12-03T18:32:27.082Z,97764.56
2022-12-03T18:34:56.166Z,97764.56
2022-12-03T18:37:29.063Z,97765.53
2022-12-03T18:39:57.777Z,97766.06
2022-12-03T18:42:25.389Z,97766.56
2022-12-03T18:44:54.790Z,97774.63
2022-12-03T18:47:28.306Z,97774.16
2022-12-03T18:49:55.971Z,97777.56
2022-12-03T18:52:25.295Z,97780.00
2022-12-03T18:54:53.149Z,97777.13
2022-12-03T18:57:20.227Z,97780.28
2022-12-03T18:59:47.385Z,97780.78
2022-12-03T19:02:45.929Z,97779.09
2022-12-03T19:05:04.991Z,97777.88
2022-12-03T19:07:34.925Z,97780.53
2022-12-03T19:10:02.327Z,97776.44
2022-12-03T19:12:29.657Z,97778.59
2022-12-03T19:14:56.634Z,97778.81
2022-12-03T19:17:23.686Z,97777.56
2022-12-03T19:19:50.739Z,97787.03
2022-12-03T19:22:17.724Z,97782.91
2022-12-03T19:24:44.692Z,97787.25
2022-12-03T19:27:11.785Z,97791.59
2022-12-03T19:29:38.923Z,97794.06
2022-12-03T19:32:06.226Z,97793.81
2022-12-03T19:34:33.603Z,97796.00
2022-12-03T19:37:00.735Z,97807.69
2022-12-03T19:39:27.687Z,97803.81
2022-12-03T19:41:54.668Z,97806.47
2022-12-03T19:44:21.864Z,97804.75
2022-12-03T19:46:51.630Z,97811.50
2022-12-03T19:49:21.151Z,97817.06
2022-12-03T19:51:48.731Z,97816.06
2022-12-03T19:54:17.461Z,97819.94
2022-12-03T19:56:44.757Z,97815.56
2022-12-03T19:59:13.257Z,97825.25
2022-12-03T20:01:43.287Z,97822.34
2022-12-03T20:04:11.952Z,97818.53
2022-12-03T20:06:39.413Z,97833.81
2022-12-03T20:09:11.760Z,97830.66
2022-12-03T20:11:40.367Z,97830.69
2022-12-03T20:14:10.820Z,97834.56
2022-12-03T20:16:37.964Z,97833.84
2022-12-03T20:19:07.724Z,97825.06
2022-12-03T20:21:36.961Z,97833.06
2022-12-03T20:24:05.429Z,97835.34
2022-12-03T20:26:32.972Z,97835.88
2022-12-03T20:29:00.490Z,97844.38
2022-12-03T20:31:30.111Z,97842.66
2022-12-03T20:33:59.856Z,97839.72
2022-12-03T20:36:27.890Z,97847.72
2022-12-03T20:38:56.683Z,97842.13
2022-12-03T20:41:23.916Z,97843.13
2022-12-03T20:43:51.666Z,97841.22
2022-12-03T20:46:26.595Z,97833.50
2022-12-03T20:48:56.986Z,97836.91
2022-12-03T20:51:29.963Z,97845.63
2022-12-03T20:53:58.617Z,97848.06
2022-12-03T20:56:37.560Z,97855.09
2022-12-03T20:59:06.954Z,97844.25
2022-12-03T21:01:36.434Z,97842.78
2022-12-03T21:04:04.978Z,97842.81
2022-12-03T21:06:34.421Z,97844.75
2022-12-03T21:09:01.780Z,97838.22
2022-12-03T21:11:32.362Z,97850.56
2022-12-03T21:14:00.688Z,97843.31
2022-12-03T21:17:05.758Z,97845.50
2022-12-03T21:19:21.114Z,97845.00
2022-12-03T21:21:48.629Z,97846.94
2022-12-03T21:24:15.710Z,97838.00
2022-12-03T21:26:42.864Z,97835.34
2022-12-03T21:29:09.925Z,97836.78
2022-12-03T21:31:38.603Z,97839.91
2022-12-03T21:34:06.246Z,97833.66
2022-12-03T21:36:33.300Z,97833.38
2022-12-03T21:39:00.936Z,97836.53
2022-12-03T21:41:27.912Z,97830.50
2022-12-03T21:43:54.989Z,97828.53
2022-12-03T21:47:12.688Z,97826.41
2022-12-03T21:49:09.220Z,97819.13
2022-12-03T21:51:36.788Z,97823.00
2022-12-03T21:54:04.070Z,97823.00
2022-12-03T21:56:33.270Z,97821.53
2022-12-03T21:59:00.263Z,97818.38
2022-12-03T22:01:27.803Z,97816.47
2022-12-03T22:03:54.995Z,97818.63
2022-12-03T22:06:22.579Z,97817.66
2022-12-03T22:08:50.090Z,97822.72
2022-12-03T22:11:20.027Z,97825.16
2022-12-03T22:13:47.599Z,97836.06
2022-12-03T22:16:18.196Z,97830.25
2022-12-03T22:18:45.644Z,97832.69
2022-12-03T22:21:15.323Z,97829.78
2022-12-03T22:23:42.668Z,97831.00
2022-12-03T22:26:13.350Z,97831.94
2022-12-03T22:28:44.622Z,97832.19
2022-12-03T22:31:12.511Z,97829.53
2022-12-03T22:33:39.873Z,97824.66
2022-12-03T22:36:18.005Z,97832.94
2022-12-03T22:38:46.806Z,97827.84
2022-12-03T22:41:14.810Z,97820.59
2022-12-03T22:43:42.217Z,97827.13
2022-12-03T22:46:12.824Z,97826.16
2022-12-03T22:48:42.262Z,97828.56
2022-12-03T22:51:15.042Z,97830.78
2022-12-03T22:53:42.192Z,97837.78
2022-12-03T22:56:09.537Z,97842.63
2022-12-03T22:58:37.894Z,97853.31
2022-12-03T23:01:05.000Z,97849.38
2022-12-03T23:03:32.073Z,97845.03
2022-12-03T23:05:59.257Z,97835.13
2022-12-03T23:08:26.292Z,97840.69
2022-12-03T23:10:53.748Z,97833.66
2022-12-03T23:13:21.310Z,97831.22
2022-12-03T23:15:50.984Z,97827.84
2022-12-03T23:18:19.724Z,97834.16
2022-12-03T23:20:52.263Z,97823.03
2022-12-03T23:23:20.364Z,97826.66
2022-12-03T23:26:04.971Z,97818.91
2022-12-03T23:28:33.327Z,97815.28
2022-12-03T23:31:00.939Z,97815.03
2022-12-03T23:33:28.732Z,97820.59
2022-12-03T23:35:55.717Z,97819.88
2022-12-03T23:38:22.806Z,97824.00
2022-12-03T23:40:50.204Z,97822.75
2022-12-03T23:43:17.178Z,97818.91
2022-12-03T23:45:44.111Z,97824.47
2022-12-03T23:48:11.357Z,97817.44
2022-12-03T23:50:41.570Z,97813.81
2022-12-03T23:53:08.902Z,97818.91
2022-12-03T23:55:40.342Z,97820.63
2022-12-03T23:58:07.599Z,97811.38
